KCRX/CRX METAR and TAF weather

Enter ICAO airport designator
Station Type Date Time Source
KCRX METAR 2023/02/05 23:55 UTC NOAA

KCRX 052355Z AUTO 25003KT 10SM CLR 14/06 A3015 RMK AO2


Station Type Date Time Source
KCRX Decoded METAR 2023/02/05 23:55 UTC NOAA

Station name not available
Feb 05, 2023 - 06:55 PM EST / 2023.02.05 2355 UTC
Wind: from the WSW (250 degrees) at 3 MPH (3 KT):0
Visibility: 10 mile(s):0
Sky conditions: clear
Temperature: 57 F (14 C)
Dew Point: 42 F (6 C)
Relative Humidity: 58%
Pressure (altimeter): 30.15 in. Hg (1020 hPa)
ob: KCRX 052355Z AUTO 25003KT 10SM CLR 14/06 A3015 RMK AO2
cycle: 0

Station Type Date Time Source
KCRX TAF UTC NOAA

Error!

Example: see airport list